Airfield :
LOGIN :

Register | Disclaimer

   EN    FR    IT 

 










Legend :    VFR   Marginal VFR   IFR   Intensive IFR   Very Intensive IFR
Visi :
Ceiling :
>= 8 km
>= 3000ft
5 to 8 km
1000 to 3000 ft
1500m to 5 km
500 to 1000 ft
800 to 1500m
200 to 500 ft
< 800m
< 200 ft
Symbols :   Thunderstorms  Fog  Heavy snow  Heavy precipitations  Wind > 20 kt
SIGMETs :     Misc.  Thunderstorms  Icing  Turbulence  Mountain Waves  Volcanic Ashes






- Airport Elevation : 1860 ft
- IATA code : GRX


LEGR - Granada

CURRENT METAR :
  • 260030Z AUTO 25004KT CAVOK 06/04 Q1023

EXPIRED METARs :
  • 260000Z AUTO 00000KT CAVOK 06/04 Q1023
  • 252330Z AUTO VRB01KT CAVOK 07/04 Q1024
  • 252300Z AUTO VRB01KT CAVOK 08/04 Q1024
  • 252230Z AUTO 26002KT CAVOK 09/04 Q1024
  • 252200Z 00000KT CAVOK 11/04 Q1024

TAF TAF LEGR
Valid from the 25 at 21:00 until the 26 at 21:00 UTC


252000Z 2521/2621 26006KT 9999 FEW030 TX20/2615Z TN01/2606Z
PROB40
TEMPO 2615/2618 32010KT



MET'MAP, your aeronautical weather chart ! - Copyright ORBIFLY December 2007 - Disclaimer

ORBIFLY MET'MAP TEAM :

Programming & Development : Alexandra Zaïnal
Concept & original design : Baudouin d'Aumeries
Assistance for programming : Marc-Olivier Méhu
Technical & hardware support : Manuel Goepfert

Contact : metmap@orbifly.com




SOURCES & CREDITS :

   NOAA